sensor_id;sensor_type;location;lat;lon;timestamp;temperature;humidity
37560;DHT22;23398;50.928;7.084;2022-07-23T00:00:06;22.40;65.40
37560;DHT22;23398;50.928;7.084;2022-07-23T00:02:33;22.40;65.40
37560;DHT22;23398;50.928;7.084;2022-07-23T00:04:58;22.40;65.60
37560;DHT22;23398;50.928;7.084;2022-07-23T00:07:24;22.40;65.80
37560;DHT22;23398;50.928;7.084;2022-07-23T00:09:49;22.30;65.70
37560;DHT22;23398;50.928;7.084;2022-07-23T00:12:15;22.30;65.70
37560;DHT22;23398;50.928;7.084;2022-07-23T00:14:41;22.40;65.80
37560;DHT22;23398;50.928;7.084;2022-07-23T00:17:06;22.30;66.10
37560;DHT22;23398;50.928;7.084;2022-07-23T00:19:32;22.30;66.10
37560;DHT22;23398;50.928;7.084;2022-07-23T00:21:58;22.30;66.20
37560;DHT22;23398;50.928;7.084;2022-07-23T00:24:23;22.30;66.50
37560;DHT22;23398;50.928;7.084;2022-07-23T00:26:49;22.30;66.60
37560;DHT22;23398;50.928;7.084;2022-07-23T00:29:14;22.30;66.80
37560;DHT22;23398;50.928;7.084;2022-07-23T00:31:40;22.30;66.70
37560;DHT22;23398;50.928;7.084;2022-07-23T00:34:06;22.20;66.80
37560;DHT22;23398;50.928;7.084;2022-07-23T00:36:32;22.20;67.10
37560;DHT22;23398;50.928;7.084;2022-07-23T00:38:58;22.20;67.20
37560;DHT22;23398;50.928;7.084;2022-07-23T00:41:23;22.20;67.30
37560;DHT22;23398;50.928;7.084;2022-07-23T00:43:49;22.20;67.40
37560;DHT22;23398;50.928;7.084;2022-07-23T00:46:20;22.60;68.20
37560;DHT22;23398;50.928;7.084;2022-07-23T00:48:45;22.20;67.90
37560;DHT22;23398;50.928;7.084;2022-07-23T00:51:11;22.20;67.90
37560;DHT22;23398;50.928;7.084;2022-07-23T00:53:36;22.10;68.00
37560;DHT22;23398;50.928;7.084;2022-07-23T00:56:02;22.10;68.20
37560;DHT22;23398;50.928;7.084;2022-07-23T00:58:28;22.10;68.30
37560;DHT22;23398;50.928;7.084;2022-07-23T01:00:54;22.20;68.60
37560;DHT22;23398;50.928;7.084;2022-07-23T01:03:20;22.10;68.50
37560;DHT22;23398;50.928;7.084;2022-07-23T01:05:45;22.00;68.60
37560;DHT22;23398;50.928;7.084;2022-07-23T01:08:11;22.00;68.80
37560;DHT22;23398;50.928;7.084;2022-07-23T01:10:37;22.00;68.80
37560;DHT22;23398;50.928;7.084;2022-07-23T01:13:09;22.00;69.00
37560;DHT22;23398;50.928;7.084;2022-07-23T01:15:36;21.90;69.30
37560;DHT22;23398;50.928;7.084;2022-07-23T01:18:04;21.90;69.40
37560;DHT22;23398;50.928;7.084;2022-07-23T01:20:30;21.90;69.50
37560;DHT22;23398;50.928;7.084;2022-07-23T01:22:56;21.80;69.50
37560;DHT22;23398;50.928;7.084;2022-07-23T01:25:22;21.80;69.60
37560;DHT22;23398;50.928;7.084;2022-07-23T01:27:49;21.80;69.70
37560;DHT22;23398;50.928;7.084;2022-07-23T01:30:15;21.70;70.20
37560;DHT22;23398;50.928;7.084;2022-07-23T01:32:41;21.70;70.30
37560;DHT22;23398;50.928;7.084;2022-07-23T01:35:07;21.70;70.40
37560;DHT22;23398;50.928;7.084;2022-07-23T01:37:33;21.60;70.50
37560;DHT22;23398;50.928;7.084;2022-07-23T01:39:59;21.60;70.90
37560;DHT22;23398;50.928;7.084;2022-07-23T01:42:25;21.60;71.40
37560;DHT22;23398;50.928;7.084;2022-07-23T01:44:50;21.50;71.70
37560;DHT22;23398;50.928;7.084;2022-07-23T01:47:16;21.40;71.80
37560;DHT22;23398;50.928;7.084;2022-07-23T01:49:42;21.40;72.10
37560;DHT22;23398;50.928;7.084;2022-07-23T01:52:08;21.40;72.40
37560;DHT22;23398;50.928;7.084;2022-07-23T01:54:37;21.30;73.60
37560;DHT22;23398;50.928;7.084;2022-07-23T01:57:03;21.30;73.30
37560;DHT22;23398;50.928;7.084;2022-07-23T01:59:29;21.40;74.10
37560;DHT22;23398;50.928;7.084;2022-07-23T02:01:55;21.30;74.70
37560;DHT22;23398;50.928;7.084;2022-07-23T02:04:23;21.20;75.10
37560;DHT22;23398;50.928;7.084;2022-07-23T02:06:49;21.20;75.70
37560;DHT22;23398;50.928;7.084;2022-07-23T02:09:15;21.40;76.10
37560;DHT22;23398;50.928;7.084;2022-07-23T02:11:41;21.20;76.50
37560;DHT22;23398;50.928;7.084;2022-07-23T02:14:07;21.10;76.90
37560;DHT22;23398;50.928;7.084;2022-07-23T02:16:33;21.10;77.20
37560;DHT22;23398;50.928;7.084;2022-07-23T02:18:58;21.00;77.50
37560;DHT22;23398;50.928;7.084;2022-07-23T02:21:24;21.10;77.60
37560;DHT22;23398;50.928;7.084;2022-07-23T02:23:50;21.00;77.30
37560;DHT22;23398;50.928;7.084;2022-07-23T02:26:15;21.00;77.10
37560;DHT22;23398;50.928;7.084;2022-07-23T02:28:41;20.90;77.10
37560;DHT22;23398;50.928;7.084;2022-07-23T02:31:07;20.90;77.30
37560;DHT22;23398;50.928;7.084;2022-07-23T02:33:33;20.80;77.40
37560;DHT22;23398;50.928;7.084;2022-07-23T02:35:59;20.80;77.90
37560;DHT22;23398;50.928;7.084;2022-07-23T02:38:24;20.70;78.30
37560;DHT22;23398;50.928;7.084;2022-07-23T02:40:50;20.80;79.00
37560;DHT22;23398;50.928;7.084;2022-07-23T02:43:16;20.60;79.20
37560;DHT22;23398;50.928;7.084;2022-07-23T02:45:42;20.60;79.50
37560;DHT22;23398;50.928;7.084;2022-07-23T02:48:07;20.60;79.70
37560;DHT22;23398;50.928;7.084;2022-07-23T02:50:33;20.60;79.90
37560;DHT22;23398;50.928;7.084;2022-07-23T02:52:58;20.60;80.40
37560;DHT22;23398;50.928;7.084;2022-07-23T02:55:24;20.60;80.50
37560;DHT22;23398;50.928;7.084;2022-07-23T02:57:50;20.50;80.70
37560;DHT22;23398;50.928;7.084;2022-07-23T03:00:15;20.50;81.00
37560;DHT22;23398;50.928;7.084;2022-07-23T03:02:41;20.50;81.10
37560;DHT22;23398;50.928;7.084;2022-07-23T03:05:07;20.80;81.50
37560;DHT22;23398;50.928;7.084;2022-07-23T03:07:33;20.50;81.10
37560;DHT22;23398;50.928;7.084;2022-07-23T03:09:58;20.50;81.00
37560;DHT22;23398;50.928;7.084;2022-07-23T03:12:24;20.50;81.10
37560;DHT22;23398;50.928;7.084;2022-07-23T03:14:50;20.40;81.00
37560;DHT22;23398;50.928;7.084;2022-07-23T03:17:15;20.40;81.30
37560;DHT22;23398;50.928;7.084;2022-07-23T03:19:41;20.40;81.40
37560;DHT22;23398;50.928;7.084;2022-07-23T03:22:07;20.30;81.30
37560;DHT22;23398;50.928;7.084;2022-07-23T03:24:33;20.30;81.40
37560;DHT22;23398;50.928;7.084;2022-07-23T03:27:17;20.30;81.40
37560;DHT22;23398;50.928;7.084;2022-07-23T03:29:42;20.20;81.30
37560;DHT22;23398;50.928;7.084;2022-07-23T03:32:08;20.10;81.40
37560;DHT22;23398;50.928;7.084;2022-07-23T03:34:34;20.10;81.50
37560;DHT22;23398;50.928;7.084;2022-07-23T03:36:59;20.00;81.60
37560;DHT22;23398;50.928;7.084;2022-07-23T03:39:25;19.90;81.60
37560;DHT22;23398;50.928;7.084;2022-07-23T03:41:50;19.90;82.60
37560;DHT22;23398;50.928;7.084;2022-07-23T03:44:16;19.80;81.80
37560;DHT22;23398;50.928;7.084;2022-07-23T03:46:41;19.80;81.90
37560;DHT22;23398;50.928;7.084;2022-07-23T03:49:07;19.70;82.00
37560;DHT22;23398;50.928;7.084;2022-07-23T03:51:33;19.70;82.00
37560;DHT22;23398;50.928;7.084;2022-07-23T03:53:58;19.60;82.00
37560;DHT22;23398;50.928;7.084;2022-07-23T03:56:24;19.50;82.10
37560;DHT22;23398;50.928;7.084;2022-07-23T03:58:50;19.50;82.20
37560;DHT22;23398;50.928;7.084;2022-07-23T04:01:15;19.40;82.40
37560;DHT22;23398;50.928;7.084;2022-07-23T04:03:41;19.30;82.60
37560;DHT22;23398;50.928;7.084;2022-07-23T04:06:06;19.50;83.10
37560;DHT22;23398;50.928;7.084;2022-07-23T04:08:32;19.20;83.00
37560;DHT22;23398;50.928;7.084;2022-07-23T04:10:57;19.20;83.30
37560;DHT22;23398;50.928;7.084;2022-07-23T04:13:23;19.10;83.50
37560;DHT22;23398;50.928;7.084;2022-07-23T04:15:49;19.10;83.70
37560;DHT22;23398;50.928;7.084;2022-07-23T04:18:16;19.10;83.90
37560;DHT22;23398;50.928;7.084;2022-07-23T04:20:43;19.10;84.10
37560;DHT22;23398;50.928;7.084;2022-07-23T04:23:09;19.10;84.40
37560;DHT22;23398;50.928;7.084;2022-07-23T04:25:35;19.00;84.60
37560;DHT22;23398;50.928;7.084;2022-07-23T04:28:01;19.10;84.90
37560;DHT22;23398;50.928;7.084;2022-07-23T04:30:26;19.10;85.00
37560;DHT22;23398;50.928;7.084;2022-07-23T04:32:52;19.10;85.30
37560;DHT22;23398;50.928;7.084;2022-07-23T04:35:17;19.10;85.40
37560;DHT22;23398;50.928;7.084;2022-07-23T04:37:43;19.10;85.40
37560;DHT22;23398;50.928;7.084;2022-07-23T04:40:12;19.10;85.40
37560;DHT22;23398;50.928;7.084;2022-07-23T04:42:37;19.10;85.70
37560;DHT22;23398;50.928;7.084;2022-07-23T04:45:04;19.20;85.80
37560;DHT22;23398;50.928;7.084;2022-07-23T04:47:30;19.20;85.90
37560;DHT22;23398;50.928;7.084;2022-07-23T04:49:56;19.30;86.10
37560;DHT22;23398;50.928;7.084;2022-07-23T04:52:22;19.40;86.40
37560;DHT22;23398;50.928;7.084;2022-07-23T04:54:48;19.30;86.30
37560;DHT22;23398;50.928;7.084;2022-07-23T04:57:13;19.40;86.50
37560;DHT22;23398;50.928;7.084;2022-07-23T04:59:39;19.50;86.60
37560;DHT22;23398;50.928;7.084;2022-07-23T05:02:05;19.50;86.60
37560;DHT22;23398;50.928;7.084;2022-07-23T05:04:30;19.60;86.80
37560;DHT22;23398;50.928;7.084;2022-07-23T05:06:57;19.60;86.80
37560;DHT22;23398;50.928;7.084;2022-07-23T05:09:22;19.70;86.80
37560;DHT22;23398;50.928;7.084;2022-07-23T05:11:48;20.00;87.00
37560;DHT22;23398;50.928;7.084;2022-07-23T05:14:13;19.90;86.60
37560;DHT22;23398;50.928;7.084;2022-07-23T05:16:39;20.10;86.50
37560;DHT22;23398;50.928;7.084;2022-07-23T05:19:05;20.10;86.20
37560;DHT22;23398;50.928;7.084;2022-07-23T05:21:31;20.30;86.20
37560;DHT22;23398;50.928;7.084;2022-07-23T05:23:57;20.30;86.10
37560;DHT22;23398;50.928;7.084;2022-07-23T05:26:22;20.40;85.90
37560;DHT22;23398;50.928;7.084;2022-07-23T05:28:48;20.50;85.50
37560;DHT22;23398;50.928;7.084;2022-07-23T05:31:14;20.60;85.30
37560;DHT22;23398;50.928;7.084;2022-07-23T05:33:39;20.70;85.10
37560;DHT22;23398;50.928;7.084;2022-07-23T05:36:05;20.80;84.60
37560;DHT22;23398;50.928;7.084;2022-07-23T05:38:32;21.00;84.30
37560;DHT22;23398;50.928;7.084;2022-07-23T05:40:57;21.10;83.90
37560;DHT22;23398;50.928;7.084;2022-07-23T05:43:23;21.50;84.30
37560;DHT22;23398;50.928;7.084;2022-07-23T05:45:49;21.30;83.60
37560;DHT22;23398;50.928;7.084;2022-07-23T05:48:14;21.50;83.30
37560;DHT22;23398;50.928;7.084;2022-07-23T05:50:40;21.60;82.60
37560;DHT22;23398;50.928;7.084;2022-07-23T05:53:05;21.80;82.40
37560;DHT22;23398;50.928;7.084;2022-07-23T05:55:31;22.00;81.20
37560;DHT22;23398;50.928;7.084;2022-07-23T05:57:57;22.10;80.40
37560;DHT22;23398;50.928;7.084;2022-07-23T06:00:23;22.20;79.50
37560;DHT22;23398;50.928;7.084;2022-07-23T06:02:49;22.20;79.10
37560;DHT22;23398;50.928;7.084;2022-07-23T06:05:14;22.30;78.50
37560;DHT22;23398;50.928;7.084;2022-07-23T06:07:40;22.40;78.00
37560;DHT22;23398;50.928;7.084;2022-07-23T06:10:06;22.40;78.20
37560;DHT22;23398;50.928;7.084;2022-07-23T06:12:32;22.40;78.10
37560;DHT22;23398;50.928;7.084;2022-07-23T06:14:57;22.50;77.90
37560;DHT22;23398;50.928;7.084;2022-07-23T06:17:23;22.60;77.90
37560;DHT22;23398;50.928;7.084;2022-07-23T06:19:49;22.60;77.70
37560;DHT22;23398;50.928;7.084;2022-07-23T06:22:14;22.70;78.50
37560;DHT22;23398;50.928;7.084;2022-07-23T06:24:40;22.80;77.90
37560;DHT22;23398;50.928;7.084;2022-07-23T06:27:06;22.90;77.40
37560;DHT22;23398;50.928;7.084;2022-07-23T06:29:31;22.90;76.50
37560;DHT22;23398;50.928;7.084;2022-07-23T06:31:57;23.00;76.90
37560;DHT22;23398;50.928;7.084;2022-07-23T06:34:22;23.10;77.30
37560;DHT22;23398;50.928;7.084;2022-07-23T06:36:48;23.20;76.40
37560;DHT22;23398;50.928;7.084;2022-07-23T06:39:14;23.30;75.60
37560;DHT22;23398;50.928;7.084;2022-07-23T06:41:39;23.40;74.90
37560;DHT22;23398;50.928;7.084;2022-07-23T06:44:05;23.40;74.60
37560;DHT22;23398;50.928;7.084;2022-07-23T06:46:31;23.50;75.00
37560;DHT22;23398;50.928;7.084;2022-07-23T06:48:56;23.50;76.20
37560;DHT22;23398;50.928;7.084;2022-07-23T06:51:22;23.80;76.70
37560;DHT22;23398;50.928;7.084;2022-07-23T06:53:47;24.10;77.80
37560;DHT22;23398;50.928;7.084;2022-07-23T06:56:13;24.70;78.10
37560;DHT22;23398;50.928;7.084;2022-07-23T06:58:39;25.40;78.30
37560;DHT22;23398;50.928;7.084;2022-07-23T07:01:04;26.20;76.80
37560;DHT22;23398;50.928;7.084;2022-07-23T07:03:30;27.20;74.30
37560;DHT22;23398;50.928;7.084;2022-07-23T07:05:55;28.30;71.60
37560;DHT22;23398;50.928;7.084;2022-07-23T07:08:23;29.30;67.80
37560;DHT22;23398;50.928;7.084;2022-07-23T07:10:48;30.50;64.50
37560;DHT22;23398;50.928;7.084;2022-07-23T07:13:14;31.60;60.60
37560;DHT22;23398;50.928;7.084;2022-07-23T07:15:40;32.70;58.50
37560;DHT22;23398;50.928;7.084;2022-07-23T07:18:05;33.60;56.10
37560;DHT22;23398;50.928;7.084;2022-07-23T07:20:31;34.60;54.70
37560;DHT22;23398;50.928;7.084;2022-07-23T07:22:57;35.50;52.40
37560;DHT22;23398;50.928;7.084;2022-07-23T07:25:22;36.40;50.50
37560;DHT22;23398;50.928;7.084;2022-07-23T07:27:48;37.20;48.90
37560;DHT22;23398;50.928;7.084;2022-07-23T07:30:13;37.90;46.70
37560;DHT22;23398;50.928;7.084;2022-07-23T07:32:39;38.50;45.20
37560;DHT22;23398;50.928;7.084;2022-07-23T07:35:06;39.00;43.50
37560;DHT22;23398;50.928;7.084;2022-07-23T07:37:32;39.40;41.90
37560;DHT22;23398;50.928;7.084;2022-07-23T07:39:58;39.80;40.60
37560;DHT22;23398;50.928;7.084;2022-07-23T07:42:23;40.10;39.70
37560;DHT22;23398;50.928;7.084;2022-07-23T07:44:49;40.20;38.50
37560;DHT22;23398;50.928;7.084;2022-07-23T07:47:14;40.50;38.80
37560;DHT22;23398;50.928;7.084;2022-07-23T07:49:41;40.60;38.40
37560;DHT22;23398;50.928;7.084;2022-07-23T07:52:07;40.80;37.90
37560;DHT22;23398;50.928;7.084;2022-07-23T07:54:33;41.00;37.70
37560;DHT22;23398;50.928;7.084;2022-07-23T07:56:59;41.20;37.00
37560;DHT22;23398;50.928;7.084;2022-07-23T07:59:24;41.50;36.60
37560;DHT22;23398;50.928;7.084;2022-07-23T08:01:51;41.80;36.60
37560;DHT22;23398;50.928;7.084;2022-07-23T08:04:16;42.30;36.00
37560;DHT22;23398;50.928;7.084;2022-07-23T08:06:42;42.80;35.60
37560;DHT22;23398;50.928;7.084;2022-07-23T08:09:08;43.30;35.40
37560;DHT22;23398;50.928;7.084;2022-07-23T08:11:33;43.80;34.50
37560;DHT22;23398;50.928;7.084;2022-07-23T08:13:59;44.30;32.90
37560;DHT22;23398;50.928;7.084;2022-07-23T08:16:24;44.60;32.20
37560;DHT22;23398;50.928;7.084;2022-07-23T08:18:50;44.90;31.90
37560;DHT22;23398;50.928;7.084;2022-07-23T08:21:15;45.30;31.70
37560;DHT22;23398;50.928;7.084;2022-07-23T08:23:41;45.40;31.10
37560;DHT22;23398;50.928;7.084;2022-07-23T08:26:07;45.50;31.00
37560;DHT22;23398;50.928;7.084;2022-07-23T08:28:32;45.40;30.30
37560;DHT22;23398;50.928;7.084;2022-07-23T08:30:58;45.20;30.00
37560;DHT22;23398;50.928;7.084;2022-07-23T08:33:24;44.80;29.90
37560;DHT22;23398;50.928;7.084;2022-07-23T08:35:50;44.30;30.00
37560;DHT22;23398;50.928;7.084;2022-07-23T08:38:20;43.80;30.30
37560;DHT22;23398;50.928;7.084;2022-07-23T08:40:49;43.40;31.00
37560;DHT22;23398;50.928;7.084;2022-07-23T08:43:18;43.10;31.40
37560;DHT22;23398;50.928;7.084;2022-07-23T08:45:46;42.90;31.60
37560;DHT22;23398;50.928;7.084;2022-07-23T08:48:17;42.90;31.40
37560;DHT22;23398;50.928;7.084;2022-07-23T08:50:51;42.90;30.70
37560;DHT22;23398;50.928;7.084;2022-07-23T08:53:18;42.80;30.80
37560;DHT22;23398;50.928;7.084;2022-07-23T08:55:45;42.70;30.30
37560;DHT22;23398;50.928;7.084;2022-07-23T08:58:11;42.60;30.60
37560;DHT22;23398;50.928;7.084;2022-07-23T09:00:37;42.60;31.70
37560;DHT22;23398;50.928;7.084;2022-07-23T09:03:02;42.70;32.00
37560;DHT22;23398;50.928;7.084;2022-07-23T09:05:28;42.90;30.90
37560;DHT22;23398;50.928;7.084;2022-07-23T09:08:10;43.00;30.60
37560;DHT22;23398;50.928;7.084;2022-07-23T09:10:44;43.10;30.20
37560;DHT22;23398;50.928;7.084;2022-07-23T09:13:36;43.00;29.90
37560;DHT22;23398;50.928;7.084;2022-07-23T09:16:04;42.80;30.00
37560;DHT22;23398;50.928;7.084;2022-07-23T09:18:49;42.80;30.30
37560;DHT22;23398;50.928;7.084;2022-07-23T09:21:16;43.00;30.80
37560;DHT22;23398;50.928;7.084;2022-07-23T09:23:50;43.10;30.20
37560;DHT22;23398;50.928;7.084;2022-07-23T09:29:03;44.00;29.80
37560;DHT22;23398;50.928;7.084;2022-07-23T09:31:52;44.50;30.00
37560;DHT22;23398;50.928;7.084;2022-07-23T09:37:13;45.60;29.00
37560;DHT22;23398;50.928;7.084;2022-07-23T09:39:39;46.10;28.80
37560;DHT22;23398;50.928;7.084;2022-07-23T09:42:24;46.80;28.60
37560;DHT22;23398;50.928;7.084;2022-07-23T09:44:52;47.40;28.60
37560;DHT22;23398;50.928;7.084;2022-07-23T09:47:20;47.90;27.90
37560;DHT22;23398;50.928;7.084;2022-07-23T09:50:09;48.50;27.00
37560;DHT22;23398;50.928;7.084;2022-07-23T09:52:48;49.00;27.40
37560;DHT22;23398;50.928;7.084;2022-07-23T09:55:14;49.20;26.10
37560;DHT22;23398;50.928;7.084;2022-07-23T09:57:41;49.30;25.50
37560;DHT22;23398;50.928;7.084;2022-07-23T10:00:08;49.40;25.30
37560;DHT22;23398;50.928;7.084;2022-07-23T10:02:36;49.40;25.10
37560;DHT22;23398;50.928;7.084;2022-07-23T10:05:03;49.50;24.80
37560;DHT22;23398;50.928;7.084;2022-07-23T10:07:34;49.50;24.70
37560;DHT22;23398;50.928;7.084;2022-07-23T10:10:00;49.40;25.20
37560;DHT22;23398;50.928;7.084;2022-07-23T10:12:26;49.30;24.70
37560;DHT22;23398;50.928;7.084;2022-07-23T10:14:52;49.40;25.20
37560;DHT22;23398;50.928;7.084;2022-07-23T10:17:18;49.50;25.60
37560;DHT22;23398;50.928;7.084;2022-07-23T10:19:44;49.60;25.00
37560;DHT22;23398;50.928;7.084;2022-07-23T10:22:18;49.60;24.90
37560;DHT22;23398;50.928;7.084;2022-07-23T10:25:04;49.80;25.00
37560;DHT22;23398;50.928;7.084;2022-07-23T10:30:01;50.00;24.10
37560;DHT22;23398;50.928;7.084;2022-07-23T10:32:49;50.10;23.80
37560;DHT22;23398;50.928;7.084;2022-07-23T10:38:42;50.10;24.30
37560;DHT22;23398;50.928;7.084;2022-07-23T10:41:12;50.00;24.90
37560;DHT22;23398;50.928;7.084;2022-07-23T10:43:38;49.90;23.40
37560;DHT22;23398;50.928;7.084;2022-07-23T10:46:24;49.70;24.00
37560;DHT22;23398;50.928;7.084;2022-07-23T10:49:29;49.50;23.70
37560;DHT22;23398;50.928;7.084;2022-07-23T10:54:40;48.60;24.90
37560;DHT22;23398;50.928;7.084;2022-07-23T10:57:06;48.10;24.10
37560;DHT22;23398;50.928;7.084;2022-07-23T11:02:31;46.10;25.10
37560;DHT22;23398;50.928;7.084;2022-07-23T11:05:04;45.00;25.10
37560;DHT22;23398;50.928;7.084;2022-07-23T11:07:30;43.80;25.20
37560;DHT22;23398;50.928;7.084;2022-07-23T11:09:56;42.80;26.10
37560;DHT22;23398;50.928;7.084;2022-07-23T11:17:37;39.60;29.20
37560;DHT22;23398;50.928;7.084;2022-07-23T11:25:02;37.30;30.30
37560;DHT22;23398;50.928;7.084;2022-07-23T11:27:42;36.70;31.60
37560;DHT22;23398;50.928;7.084;2022-07-23T11:30:09;36.00;32.90
37560;DHT22;23398;50.928;7.084;2022-07-23T11:32:40;35.50;33.80
37560;DHT22;23398;50.928;7.084;2022-07-23T11:35:23;35.00;33.70
37560;DHT22;23398;50.928;7.084;2022-07-23T11:37:49;34.60;35.50
37560;DHT22;23398;50.928;7.084;2022-07-23T11:40:19;34.30;34.80
37560;DHT22;23398;50.928;7.084;2022-07-23T11:42:52;34.00;34.50
37560;DHT22;23398;50.928;7.084;2022-07-23T11:45:18;33.70;34.90
37560;DHT22;23398;50.928;7.084;2022-07-23T11:47:44;33.50;34.60
37560;DHT22;23398;50.928;7.084;2022-07-23T11:50:09;33.10;34.40
37560;DHT22;23398;50.928;7.084;2022-07-23T11:52:35;32.80;35.10
37560;DHT22;23398;50.928;7.084;2022-07-23T11:55:05;32.60;35.40
37560;DHT22;23398;50.928;7.084;2022-07-23T11:57:34;32.30;35.80
37560;DHT22;23398;50.928;7.084;2022-07-23T12:00:13;32.00;36.30
37560;DHT22;23398;50.928;7.084;2022-07-23T12:02:42;31.70;38.00
37560;DHT22;23398;50.928;7.084;2022-07-23T12:05:12;31.60;37.90
37560;DHT22;23398;50.928;7.084;2022-07-23T12:07:40;31.50;38.30
37560;DHT22;23398;50.928;7.084;2022-07-23T12:10:20;31.40;37.60
37560;DHT22;23398;50.928;7.084;2022-07-23T12:12:51;31.20;37.40
37560;DHT22;23398;50.928;7.084;2022-07-23T12:15:27;31.10;38.20
37560;DHT22;23398;50.928;7.084;2022-07-23T12:17:54;31.10;38.30
37560;DHT22;23398;50.928;7.084;2022-07-23T12:20:24;31.00;38.20
37560;DHT22;23398;50.928;7.084;2022-07-23T12:22:52;30.90;38.70
37560;DHT22;23398;50.928;7.084;2022-07-23T12:25:23;30.80;39.30
37560;DHT22;23398;50.928;7.084;2022-07-23T12:28:26;30.80;39.20
37560;DHT22;23398;50.928;7.084;2022-07-23T12:30:54;30.70;40.00
37560;DHT22;23398;50.928;7.084;2022-07-23T12:33:26;30.60;39.70
37560;DHT22;23398;50.928;7.084;2022-07-23T12:35:54;30.60;40.40
37560;DHT22;23398;50.928;7.084;2022-07-23T12:38:22;30.60;40.00
37560;DHT22;23398;50.928;7.084;2022-07-23T12:45:48;30.50;39.00
37560;DHT22;23398;50.928;7.084;2022-07-23T12:48:32;30.40;40.10
37560;DHT22;23398;50.928;7.084;2022-07-23T12:53:41;30.40;40.10
37560;DHT22;23398;50.928;7.084;2022-07-23T12:56:11;30.30;39.20
37560;DHT22;23398;50.928;7.084;2022-07-23T13:01:06;30.30;40.40
37560;DHT22;23398;50.928;7.084;2022-07-23T13:03:35;30.20;40.80
37560;DHT22;23398;50.928;7.084;2022-07-23T13:06:03;30.20;40.90
37560;DHT22;23398;50.928;7.084;2022-07-23T13:08:30;30.10;41.60
37560;DHT22;23398;50.928;7.084;2022-07-23T13:10:57;30.10;41.70
37560;DHT22;23398;50.928;7.084;2022-07-23T13:13:25;30.00;41.30
37560;DHT22;23398;50.928;7.084;2022-07-23T13:15:51;30.00;42.00
37560;DHT22;23398;50.928;7.084;2022-07-23T13:18:17;30.00;42.40
37560;DHT22;23398;50.928;7.084;2022-07-23T13:20:47;29.90;42.70
37560;DHT22;23398;50.928;7.084;2022-07-23T13:23:13;29.90;42.40
37560;DHT22;23398;50.928;7.084;2022-07-23T13:25:40;29.90;42.00
37560;DHT22;23398;50.928;7.084;2022-07-23T13:28:05;29.90;42.00
37560;DHT22;23398;50.928;7.084;2022-07-23T13:30:31;29.90;42.80
37560;DHT22;23398;50.928;7.084;2022-07-23T13:32:56;29.90;42.70
37560;DHT22;23398;50.928;7.084;2022-07-23T13:35:22;29.90;42.30
37560;DHT22;23398;50.928;7.084;2022-07-23T13:37:48;29.90;42.00
37560;DHT22;23398;50.928;7.084;2022-07-23T13:40:14;29.90;41.80
37560;DHT22;23398;50.928;7.084;2022-07-23T13:42:40;30.00;41.60
37560;DHT22;23398;50.928;7.084;2022-07-23T13:45:06;30.00;42.30
37560;DHT22;23398;50.928;7.084;2022-07-23T13:47:32;30.00;41.30
37560;DHT22;23398;50.928;7.084;2022-07-23T13:49:57;29.90;41.50
37560;DHT22;23398;50.928;7.084;2022-07-23T13:52:23;29.90;41.80
37560;DHT22;23398;50.928;7.084;2022-07-23T13:54:49;30.00;42.60
37560;DHT22;23398;50.928;7.084;2022-07-23T13:57:15;30.00;42.40
37560;DHT22;23398;50.928;7.084;2022-07-23T13:59:40;29.80;42.50
37560;DHT22;23398;50.928;7.084;2022-07-23T14:02:06;29.90;41.60
37560;DHT22;23398;50.928;7.084;2022-07-23T14:04:32;29.80;40.90
37560;DHT22;23398;50.928;7.084;2022-07-23T14:06:58;29.80;41.00
37560;DHT22;23398;50.928;7.084;2022-07-23T14:09:24;29.70;41.70
37560;DHT22;23398;50.928;7.084;2022-07-23T14:11:50;29.70;41.60
37560;DHT22;23398;50.928;7.084;2022-07-23T14:14:17;29.60;41.50
37560;DHT22;23398;50.928;7.084;2022-07-23T14:16:43;29.60;41.60
37560;DHT22;23398;50.928;7.084;2022-07-23T14:19:09;29.50;41.30
37560;DHT22;23398;50.928;7.084;2022-07-23T14:21:34;29.50;41.70
37560;DHT22;23398;50.928;7.084;2022-07-23T14:24:00;29.40;42.70
37560;DHT22;23398;50.928;7.084;2022-07-23T14:26:25;29.40;42.40
37560;DHT22;23398;50.928;7.084;2022-07-23T14:28:51;29.40;43.10
37560;DHT22;23398;50.928;7.084;2022-07-23T14:31:17;29.40;42.80
37560;DHT22;23398;50.928;7.084;2022-07-23T14:33:42;29.30;42.90
37560;DHT22;23398;50.928;7.084;2022-07-23T14:36:08;29.40;43.00
37560;DHT22;23398;50.928;7.084;2022-07-23T14:38:33;29.30;42.00
37560;DHT22;23398;50.928;7.084;2022-07-23T14:40:59;29.30;42.00
37560;DHT22;23398;50.928;7.084;2022-07-23T14:43:25;29.30;41.80
37560;DHT22;23398;50.928;7.084;2022-07-23T14:45:50;29.30;42.00
37560;DHT22;23398;50.928;7.084;2022-07-23T14:48:16;29.30;42.40
37560;DHT22;23398;50.928;7.084;2022-07-23T14:50:41;29.30;42.20
37560;DHT22;23398;50.928;7.084;2022-07-23T14:53:07;29.30;42.00
37560;DHT22;23398;50.928;7.084;2022-07-23T14:55:33;29.20;42.40
37560;DHT22;23398;50.928;7.084;2022-07-23T14:57:59;29.20;41.80
37560;DHT22;23398;50.928;7.084;2022-07-23T15:00:25;29.20;43.00
37560;DHT22;23398;50.928;7.084;2022-07-23T15:02:52;29.20;43.40
37560;DHT22;23398;50.928;7.084;2022-07-23T15:05:18;29.20;42.30
37560;DHT22;23398;50.928;7.084;2022-07-23T15:07:44;29.20;42.30
37560;DHT22;23398;50.928;7.084;2022-07-23T15:10:11;29.20;43.10
37560;DHT22;23398;50.928;7.084;2022-07-23T15:12:37;29.20;42.70
37560;DHT22;23398;50.928;7.084;2022-07-23T15:15:04;29.20;42.50
37560;DHT22;23398;50.928;7.084;2022-07-23T15:17:30;29.20;43.00
37560;DHT22;23398;50.928;7.084;2022-07-23T15:19:55;29.20;42.90
37560;DHT22;23398;50.928;7.084;2022-07-23T15:22:21;29.20;43.60
37560;DHT22;23398;50.928;7.084;2022-07-23T15:24:47;29.30;42.80
37560;DHT22;23398;50.928;7.084;2022-07-23T15:27:12;29.30;42.70
37560;DHT22;23398;50.928;7.084;2022-07-23T15:29:38;29.30;42.80
37560;DHT22;23398;50.928;7.084;2022-07-23T15:32:04;29.30;43.10
37560;DHT22;23398;50.928;7.084;2022-07-23T15:34:29;29.30;42.70
37560;DHT22;23398;50.928;7.084;2022-07-23T15:36:56;29.30;42.60
37560;DHT22;23398;50.928;7.084;2022-07-23T15:39:24;29.40;42.10
37560;DHT22;23398;50.928;7.084;2022-07-23T15:41:50;29.30;42.30
37560;DHT22;23398;50.928;7.084;2022-07-23T15:44:15;29.30;42.30
37560;DHT22;23398;50.928;7.084;2022-07-23T15:46:41;29.30;41.90
37560;DHT22;23398;50.928;7.084;2022-07-23T15:49:06;29.30;42.00
37560;DHT22;23398;50.928;7.084;2022-07-23T15:51:32;29.30;42.20
37560;DHT22;23398;50.928;7.084;2022-07-23T15:53:58;29.20;42.70
37560;DHT22;23398;50.928;7.084;2022-07-23T15:56:23;29.20;43.10
37560;DHT22;23398;50.928;7.084;2022-07-23T15:58:49;29.20;42.60
37560;DHT22;23398;50.928;7.084;2022-07-23T16:01:14;29.20;42.30
37560;DHT22;23398;50.928;7.084;2022-07-23T16:03:40;29.20;42.30
37560;DHT22;23398;50.928;7.084;2022-07-23T16:06:06;29.30;43.00